sensor_id;sensor_type;location;lat;lon;timestamp;pressure;altitude;pressure_sealevel;temperature;humidity
21504;BME280;10913;51.992;9.228;2022-08-21T00:02:22;100403.44;;;17.50;96.45
21504;BME280;10913;51.992;9.228;2022-08-21T00:04:48;100405.28;;;17.48;96.67
21504;BME280;10913;51.992;9.228;2022-08-21T00:07:15;100401.88;;;17.43;97.00
21504;BME280;10913;51.992;9.228;2022-08-21T00:09:41;100401.03;;;17.41;96.85
21504;BME280;10913;51.992;9.228;2022-08-21T00:12:07;100395.84;;;17.38;96.89
21504;BME280;10913;51.992;9.228;2022-08-21T00:14:33;100385.94;;;17.40;96.32
21504;BME280;10913;51.992;9.228;2022-08-21T00:17:00;100385.94;;;17.40;95.67
21504;BME280;10913;51.992;9.228;2022-08-21T00:19:26;100391.28;;;17.40;95.81
21504;BME280;10913;51.992;9.228;2022-08-21T00:21:52;100384.31;;;17.36;96.13
21504;BME280;10913;51.992;9.228;2022-08-21T00:24:19;100383.50;;;17.34;96.49
21504;BME280;10913;51.992;9.228;2022-08-21T00:26:44;100389.97;;;17.27;96.41
21504;BME280;10913;51.992;9.228;2022-08-21T00:29:10;100384.75;;;17.22;96.32
21504;BME280;10913;51.992;9.228;2022-08-21T00:31:36;100379.50;;;17.19;96.12
21504;BME280;10913;51.992;9.228;2022-08-21T00:34:02;100381.47;;;17.14;95.94
21504;BME280;10913;51.992;9.228;2022-08-21T00:36:28;100388.66;;;17.12;96.26
21504;BME280;10913;51.992;9.228;2022-08-21T00:38:53;100393.22;;;17.09;96.53
21504;BME280;10913;51.992;9.228;2022-08-21T00:41:19;100386.22;;;17.05;96.78
21504;BME280;10913;51.992;9.228;2022-08-21T00:43:44;100386.28;;;17.03;96.87
21504;BME280;10913;51.992;9.228;2022-08-21T00:46:10;100381.91;;;17.01;97.38
21504;BME280;10913;51.992;9.228;2022-08-21T00:48:35;100386.41;;;16.99;97.15
21504;BME280;10913;51.992;9.228;2022-08-21T00:51:05;100392.78;;;16.95;97.18
21504;BME280;10913;51.992;9.228;2022-08-21T00:53:32;100399.13;;;16.91;97.64
21504;BME280;10913;51.992;9.228;2022-08-21T00:55:59;100394.78;;;16.88;97.33
21504;BME280;10913;51.992;9.228;2022-08-21T00:58:29;100398.44;;;16.84;97.64
21504;BME280;10913;51.992;9.228;2022-08-21T01:00:56;100397.66;;;16.80;97.37
21504;BME280;10913;51.992;9.228;2022-08-21T01:03:23;100403.22;;;16.74;97.89
21504;BME280;10913;51.992;9.228;2022-08-21T01:05:49;100396.16;;;16.72;98.21
21504;BME280;10913;51.992;9.228;2022-08-21T01:08:17;100401.47;;;16.73;98.19
21504;BME280;10913;51.992;9.228;2022-08-21T01:10:44;100397.88;;;16.74;98.21
21504;BME280;10913;51.992;9.228;2022-08-21T01:13:14;100397.88;;;16.74;98.45
21504;BME280;10913;51.992;9.228;2022-08-21T01:15:43;100394.28;;;16.75;98.39
21504;BME280;10913;51.992;9.228;2022-08-21T01:18:11;100392.53;;;16.74;98.16
21504;BME280;10913;51.992;9.228;2022-08-21T01:20:40;100393.41;;;16.75;98.09
21504;BME280;10913;51.992;9.228;2022-08-21T01:23:07;100397.81;;;16.76;98.68
21504;BME280;10913;51.992;9.228;2022-08-21T01:25:34;100399.63;;;16.75;98.54
21504;BME280;10913;51.992;9.228;2022-08-21T01:28:11;100392.53;;;16.74;98.51
21504;BME280;10913;51.992;9.228;2022-08-21T01:30:37;100397.97;;;16.71;98.42
21504;BME280;10913;51.992;9.228;2022-08-21T01:33:04;100388.19;;;16.70;98.57
21504;BME280;10913;51.992;9.228;2022-08-21T01:35:30;100383.78;;;16.69;98.86
21504;BME280;10913;51.992;9.228;2022-08-21T01:37:55;100383.75;;;16.71;99.08
21504;BME280;10913;51.992;9.228;2022-08-21T01:40:21;100391.78;;;16.69;98.95
21504;BME280;10913;51.992;9.228;2022-08-21T01:42:46;100379.38;;;16.68;98.63
21504;BME280;10913;51.992;9.228;2022-08-21T01:45:13;100380.28;;;16.67;98.72
21504;BME280;10913;51.992;9.228;2022-08-21T01:47:39;100382.09;;;16.67;98.90
21504;BME280;10913;51.992;9.228;2022-08-21T01:50:07;100377.75;;;16.61;99.40
21504;BME280;10913;51.992;9.228;2022-08-21T01:52:33;100377.94;;;16.57;100.00
21504;BME280;10913;51.992;9.228;2022-08-21T01:54:58;100372.69;;;16.53;100.00
21504;BME280;10913;51.992;9.228;2022-08-21T01:57:24;100382.50;;;16.51;100.00
21504;BME280;10913;51.992;9.228;2022-08-21T01:59:50;100377.22;;;16.50;99.77
21504;BME280;10913;51.992;9.228;2022-08-21T02:02:15;100371.94;;;16.48;99.48
21504;BME280;10913;51.992;9.228;2022-08-21T02:04:41;100363.94;;;16.48;99.06
21504;BME280;10913;51.992;9.228;2022-08-21T02:07:06;100377.31;;;16.47;99.53
21504;BME280;10913;51.992;9.228;2022-08-21T02:09:32;100372.06;;;16.44;98.80
21504;BME280;10913;51.992;9.228;2022-08-21T02:11:57;100365.91;;;16.42;99.27
21504;BME280;10913;51.992;9.228;2022-08-21T02:14:23;100365.06;;;16.40;99.25
21504;BME280;10913;51.992;9.228;2022-08-21T02:16:48;100361.59;;;16.38;99.24
21504;BME280;10913;51.992;9.228;2022-08-21T02:19:15;100355.56;;;16.31;99.58
21504;BME280;10913;51.992;9.228;2022-08-21T02:21:41;100365.44;;;16.28;99.72
21504;BME280;10913;51.992;9.228;2022-08-21T02:24:07;100356.59;;;16.26;99.97
21504;BME280;10913;51.992;9.228;2022-08-21T02:26:33;100359.31;;;16.24;100.00
21504;BME280;10913;51.992;9.228;2022-08-21T02:28:59;100359.34;;;16.23;100.00
21504;BME280;10913;51.992;9.228;2022-08-21T02:31:25;100354.06;;;16.21;100.00
21504;BME280;10913;51.992;9.228;2022-08-21T02:33:51;100359.50;;;16.18;100.00
21504;BME280;10913;51.992;9.228;2022-08-21T02:36:17;100356.88;;;16.16;99.96
21504;BME280;10913;51.992;9.228;2022-08-21T02:38:43;100364.06;;;16.14;99.91
21504;BME280;10913;51.992;9.228;2022-08-21T02:41:16;100358.81;;;16.11;99.73
21504;BME280;10913;51.992;9.228;2022-08-21T02:43:42;100358.00;;;16.08;99.34
21504;BME280;10913;51.992;9.228;2022-08-21T02:46:09;100359.84;;;16.06;99.29
21504;BME280;10913;51.992;9.228;2022-08-21T02:48:35;100365.22;;;16.04;99.30
21504;BME280;10913;51.992;9.228;2022-08-21T02:51:13;100354.63;;;16.01;99.42
21504;BME280;10913;51.992;9.228;2022-08-21T02:53:40;100356.47;;;15.99;99.54
21504;BME280;10913;51.992;9.228;2022-08-21T02:56:08;100349.41;;;15.98;99.55
21504;BME280;10913;51.992;9.228;2022-08-21T02:58:37;100351.25;;;15.96;99.53
21504;BME280;10913;51.992;9.228;2022-08-21T03:01:04;100344.16;;;15.95;99.66
21504;BME280;10913;51.992;9.228;2022-08-21T03:03:36;100350.41;;;15.94;99.61
21504;BME280;10913;51.992;9.228;2022-08-21T03:06:04;100350.53;;;15.90;99.78
21504;BME280;10913;51.992;9.228;2022-08-21T03:08:29;100345.25;;;15.88;100.00
21504;BME280;10913;51.992;9.228;2022-08-21T03:10:55;100341.75;;;15.86;100.00
21504;BME280;10913;51.992;9.228;2022-08-21T03:13:21;100343.56;;;15.84;100.00
21504;BME280;10913;51.992;9.228;2022-08-21T03:15:47;100348.97;;;15.81;100.00
21504;BME280;10913;51.992;9.228;2022-08-21T03:18:13;100349.81;;;15.83;100.00
21504;BME280;10913;51.992;9.228;2022-08-21T03:20:40;100340.94;;;15.82;100.00
21504;BME280;10913;51.992;9.228;2022-08-21T03:23:06;100344.47;;;15.83;100.00
21504;BME280;10913;51.992;9.228;2022-08-21T03:25:33;100346.22;;;15.84;100.00
21504;BME280;10913;51.992;9.228;2022-08-21T03:28:00;100348.91;;;15.84;100.00
21504;BME280;10913;51.992;9.228;2022-08-21T03:30:26;100349.72;;;15.86;100.00
21504;BME280;10913;51.992;9.228;2022-08-21T03:32:51;100340.88;;;15.85;100.00
21504;BME280;10913;51.992;9.228;2022-08-21T03:35:18;100348.81;;;15.87;100.00
21504;BME280;10913;51.992;9.228;2022-08-21T03:37:45;100348.78;;;15.89;100.00
21504;BME280;10913;51.992;9.228;2022-08-21T03:40:13;100343.41;;;15.90;100.00
21504;BME280;10913;51.992;9.228;2022-08-21T03:42:39;100347.81;;;15.91;100.00
21504;BME280;10913;51.992;9.228;2022-08-21T03:45:05;100361.22;;;15.88;100.00
21504;BME280;10913;51.992;9.228;2022-08-21T03:47:31;100350.59;;;15.87;100.00
21504;BME280;10913;51.992;9.228;2022-08-21T03:49:56;100359.47;;;15.87;100.00
21504;BME280;10913;51.992;9.228;2022-08-21T03:52:22;100352.41;;;15.86;100.00
21504;BME280;10913;51.992;9.228;2022-08-21T03:54:47;100353.28;;;15.87;100.00
21504;BME280;10913;51.992;9.228;2022-08-21T03:57:13;100356.81;;;15.87;100.00
21504;BME280;10913;51.992;9.228;2022-08-21T03:59:38;100352.31;;;15.89;100.00
21504;BME280;10913;51.992;9.228;2022-08-21T04:02:05;100352.28;;;15.91;100.00
21504;BME280;10913;51.992;9.228;2022-08-21T04:04:32;100361.16;;;15.91;100.00
21504;BME280;10913;51.992;9.228;2022-08-21T04:06:58;100365.56;;;15.92;100.00
21504;BME280;10913;51.992;9.228;2022-08-21T04:09:24;100363.78;;;15.93;100.00
21504;BME280;10913;51.992;9.228;2022-08-21T04:11:50;100366.44;;;15.93;100.00
21504;BME280;10913;51.992;9.228;2022-08-21T04:14:16;100365.53;;;15.94;100.00
21504;BME280;10913;51.992;9.228;2022-08-21T04:16:42;100366.41;;;15.94;100.00
21504;BME280;10913;51.992;9.228;2022-08-21T04:19:08;100366.47;;;15.91;100.00
21504;BME280;10913;51.992;9.228;2022-08-21T04:21:36;100373.63;;;15.89;100.00
21504;BME280;10913;51.992;9.228;2022-08-21T04:24:02;100370.13;;;15.87;100.00
21504;BME280;10913;51.992;9.228;2022-08-21T04:26:27;100370.13;;;15.87;100.00
21504;BME280;10913;51.992;9.228;2022-08-21T04:28:53;100371.03;;;15.86;100.00
21504;BME280;10913;51.992;9.228;2022-08-21T04:31:20;100372.88;;;15.84;100.00
21504;BME280;10913;51.992;9.228;2022-08-21T04:33:46;100378.22;;;15.84;100.00
21504;BME280;10913;51.992;9.228;2022-08-21T04:36:11;100379.13;;;15.83;100.00
21504;BME280;10913;51.992;9.228;2022-08-21T04:38:37;100378.25;;;15.82;100.00
21504;BME280;10913;51.992;9.228;2022-08-21T04:41:03;100377.38;;;15.82;100.00
21504;BME280;10913;51.992;9.228;2022-08-21T04:43:29;100382.69;;;15.82;100.00
21504;BME280;10913;51.992;9.228;2022-08-21T04:45:55;100379.28;;;15.78;100.00
21504;BME280;10913;51.992;9.228;2022-08-21T04:48:22;100383.81;;;15.75;100.00
21504;BME280;10913;51.992;9.228;2022-08-21T04:50:58;100390.91;;;15.74;100.00
21504;BME280;10913;51.992;9.228;2022-08-21T04:53:45;100397.13;;;15.75;100.00
21504;BME280;10913;51.992;9.228;2022-08-21T04:56:22;100391.72;;;15.78;100.00
21504;BME280;10913;51.992;9.228;2022-08-21T04:58:49;100398.69;;;15.82;100.00
21504;BME280;10913;51.992;9.228;2022-08-21T05:01:19;100397.69;;;15.86;100.00
21504;BME280;10913;51.992;9.228;2022-08-21T05:03:48;100395.78;;;15.91;100.00
21504;BME280;10913;51.992;9.228;2022-08-21T05:06:15;100392.13;;;15.95;100.00
21504;BME280;10913;51.992;9.228;2022-08-21T05:08:43;100398.28;;;15.97;100.00
21504;BME280;10913;51.992;9.228;2022-08-21T05:11:10;100399.09;;;15.99;100.00
21504;BME280;10913;51.992;9.228;2022-08-21T05:13:36;100403.47;;;16.02;100.00
21504;BME280;10913;51.992;9.228;2022-08-21T05:16:01;100400.72;;;16.05;100.00
21504;BME280;10913;51.992;9.228;2022-08-21T05:18:27;100406.94;;;16.05;100.00
21504;BME280;10913;51.992;9.228;2022-08-21T05:20:53;100400.59;;;16.09;100.00
21504;BME280;10913;51.992;9.228;2022-08-21T05:23:18;100401.44;;;16.11;100.00
21504;BME280;10913;51.992;9.228;2022-08-21T05:25:44;100411.19;;;16.12;100.00
21504;BME280;10913;51.992;9.228;2022-08-21T05:28:10;100408.44;;;16.15;100.00
21504;BME280;10913;51.992;9.228;2022-08-21T05:30:37;100419.84;;;16.20;100.00
21504;BME280;10913;51.992;9.228;2022-08-21T05:33:04;100414.41;;;16.24;100.00
21504;BME280;10913;51.992;9.228;2022-08-21T05:35:30;100409.84;;;16.29;100.00
21504;BME280;10913;51.992;9.228;2022-08-21T05:37:57;100407.88;;;16.35;100.00
21504;BME280;10913;51.992;9.228;2022-08-21T05:40:23;100415.66;;;16.43;100.00
21504;BME280;10913;51.992;9.228;2022-08-21T05:42:50;100416.34;;;16.49;100.00
21504;BME280;10913;51.992;9.228;2022-08-21T05:45:16;100409.94;;;16.57;100.00
21504;BME280;10913;51.992;9.228;2022-08-21T05:47:42;100410.69;;;16.60;100.00
21504;BME280;10913;51.992;9.228;2022-08-21T05:50:07;100410.66;;;16.62;100.00
21504;BME280;10913;51.992;9.228;2022-08-21T05:52:33;100410.50;;;16.68;100.00
21504;BME280;10913;51.992;9.228;2022-08-21T05:54:58;100419.16;;;16.76;100.00
21504;BME280;10913;51.992;9.228;2022-08-21T05:57:24;100418.03;;;16.83;100.00
21504;BME280;10913;51.992;9.228;2022-08-21T05:59:50;100421.50;;;16.86;100.00
21504;BME280;10913;51.992;9.228;2022-08-21T06:02:20;100416.81;;;16.95;100.00
21504;BME280;10913;51.992;9.228;2022-08-21T06:04:46;100423.69;;;17.02;100.00
21504;BME280;10913;51.992;9.228;2022-08-21T06:07:12;100414.56;;;17.09;100.00
21504;BME280;10913;51.992;9.228;2022-08-21T06:09:37;100418.81;;;17.16;100.00
21504;BME280;10913;51.992;9.228;2022-08-21T06:12:08;100420.34;;;17.23;100.00
21504;BME280;10913;51.992;9.228;2022-08-21T06:14:34;100427.25;;;17.30;100.00
21504;BME280;10913;51.992;9.228;2022-08-21T06:17:09;100427.94;;;17.37;100.00
21504;BME280;10913;51.992;9.228;2022-08-21T06:19:34;100422.47;;;17.40;100.00
21504;BME280;10913;51.992;9.228;2022-08-21T06:22:00;100417.81;;;17.46;100.00
21504;BME280;10913;51.992;9.228;2022-08-21T06:24:26;100423.69;;;17.58;99.55
21504;BME280;10913;51.992;9.228;2022-08-21T06:26:52;100417.13;;;17.68;98.89
21504;BME280;10913;51.992;9.228;2022-08-21T06:29:18;100421.25;;;17.78;99.06
21504;BME280;10913;51.992;9.228;2022-08-21T06:31:46;100414.69;;;17.86;99.03
21504;BME280;10913;51.992;9.228;2022-08-21T06:34:11;100410.84;;;17.95;99.00
21504;BME280;10913;51.992;9.228;2022-08-21T06:36:38;100411.41;;;18.03;99.00
21504;BME280;10913;51.992;9.228;2022-08-21T06:39:03;100403.09;;;18.12;98.51
21504;BME280;10913;51.992;9.228;2022-08-21T06:41:28;100408.97;;;18.22;98.09
21504;BME280;10913;51.992;9.228;2022-08-21T06:43:55;100409.41;;;18.35;97.82
21504;BME280;10913;51.992;9.228;2022-08-21T06:46:25;100409.97;;;18.43;98.52
21504;BME280;10913;51.992;9.228;2022-08-21T06:48:51;100407.03;;;18.50;98.49
21504;BME280;10913;51.992;9.228;2022-08-21T06:51:17;100409.38;;;18.59;97.53
21504;BME280;10913;51.992;9.228;2022-08-21T06:53:44;100416.06;;;18.71;97.06
21504;BME280;10913;51.992;9.228;2022-08-21T06:56:09;100408.59;;;18.79;96.24
21504;BME280;10913;51.992;9.228;2022-08-21T06:58:35;100398.31;;;18.92;95.99
21504;BME280;10913;51.992;9.228;2022-08-21T07:01:00;100409.41;;;19.05;96.95
21504;BME280;10913;51.992;9.228;2022-08-21T07:03:28;100406.16;;;19.18;96.62
21504;BME280;10913;51.992;9.228;2022-08-21T07:05:55;100405.63;;;19.32;96.21
21504;BME280;10913;51.992;9.228;2022-08-21T07:08:23;100396.31;;;19.41;96.47
21504;BME280;10913;51.992;9.228;2022-08-21T07:10:49;100395.13;;;19.48;95.43
21504;BME280;10913;51.992;9.228;2022-08-21T07:13:14;100386.88;;;19.54;94.82
21504;BME280;10913;51.992;9.228;2022-08-21T07:15:40;100386.34;;;19.66;94.57
21504;BME280;10913;51.992;9.228;2022-08-21T07:18:06;100386.56;;;19.82;94.01
21504;BME280;10913;51.992;9.228;2022-08-21T07:20:31;100383.81;;;20.04;92.94
21504;BME280;10913;51.992;9.228;2022-08-21T07:22:59;100380.22;;;20.44;91.85
21504;BME280;10913;51.992;9.228;2022-08-21T07:25:25;100383.97;;;20.97;90.44
21504;BME280;10913;51.992;9.228;2022-08-21T07:27:51;100374.53;;;21.78;87.72
21504;BME280;10913;51.992;9.228;2022-08-21T07:30:17;100375.53;;;23.70;81.00
21504;BME280;10913;51.992;9.228;2022-08-21T07:32:42;100361.97;;;26.58;71.80
21504;BME280;10913;51.992;9.228;2022-08-21T07:35:07;100360.38;;;29.23;64.84
21504;BME280;10913;51.992;9.228;2022-08-21T07:37:33;100355.97;;;31.48;59.05
21504;BME280;10913;51.992;9.228;2022-08-21T07:39:58;100356.34;;;33.04;55.76
21504;BME280;10913;51.992;9.228;2022-08-21T07:42:24;100358.44;;;34.52;52.67
21504;BME280;10913;51.992;9.228;2022-08-21T07:44:49;100348.53;;;35.68;50.26
21504;BME280;10913;51.992;9.228;2022-08-21T07:47:15;100346.75;;;36.73;49.17
21504;BME280;10913;51.992;9.228;2022-08-21T07:49:40;100357.19;;;37.24;47.48
21504;BME280;10913;51.992;9.228;2022-08-21T07:52:06;100358.69;;;37.81;46.66
21504;BME280;10913;51.992;9.228;2022-08-21T07:54:31;100337.53;;;38.34;46.14
21504;BME280;10913;51.992;9.228;2022-08-21T07:56:56;100345.75;;;38.71;45.15
21504;BME280;10913;51.992;9.228;2022-08-21T07:59:22;100345.31;;;39.33;44.99
21504;BME280;10913;51.992;9.228;2022-08-21T08:01:47;100336.50;;;39.66;44.41
21504;BME280;10913;51.992;9.228;2022-08-21T08:04:12;100334.66;;;40.22;43.60
21504;BME280;10913;51.992;9.228;2022-08-21T08:06:40;100335.28;;;40.73;42.91
21504;BME280;10913;51.992;9.228;2022-08-21T08:09:05;100332.28;;;41.22;41.93
21504;BME280;10913;51.992;9.228;2022-08-21T08:11:30;100330.03;;;41.52;41.16
21504;BME280;10913;51.992;9.228;2022-08-21T08:13:56;100327.19;;;41.26;40.35
21504;BME280;10913;51.992;9.228;2022-08-21T08:16:25;100319.75;;;40.85;41.12
21504;BME280;10913;51.992;9.228;2022-08-21T08:18:51;100321.97;;;40.97;40.93
21504;BME280;10913;51.992;9.228;2022-08-21T08:21:16;100318.28;;;40.89;40.52
21504;BME280;10913;51.992;9.228;2022-08-21T08:23:44;100316.78;;;40.87;40.24
21504;BME280;10913;51.992;9.228;2022-08-21T08:26:10;100320.38;;;40.81;40.15
21504;BME280;10913;51.992;9.228;2022-08-21T08:28:36;100316.53;;;40.75;39.38
21504;BME280;10913;51.992;9.228;2022-08-21T08:31:02;100309.59;;;40.30;39.48
21504;BME280;10913;51.992;9.228;2022-08-21T08:33:27;100307.19;;;39.92;40.21
21504;BME280;10913;51.992;9.228;2022-08-21T08:35:53;100314.69;;;39.35;40.08
21504;BME280;10913;51.992;9.228;2022-08-21T08:38:20;100310.88;;;38.41;40.09
21504;BME280;10913;51.992;9.228;2022-08-21T08:41:17;100302.56;;;37.51;41.49
21504;BME280;10913;51.992;9.228;2022-08-21T08:43:55;100310.19;;;36.79;42.92
21504;BME280;10913;51.992;9.228;2022-08-21T08:46:41;100296.94;;;36.19;43.21
21504;BME280;10913;51.992;9.228;2022-08-21T08:49:22;100292.88;;;35.50;43.44
21504;BME280;10913;51.992;9.228;2022-08-21T08:51:55;100292.69;;;34.85;44.38
21504;BME280;10913;51.992;9.228;2022-08-21T08:57:08;100302.25;;;34.13;46.64
21504;BME280;10913;51.992;9.228;2022-08-21T08:59:44;100297.47;;;33.89;47.33
21504;BME280;10913;51.992;9.228;2022-08-21T09:02:11;100299.69;;;33.50;47.21
21504;BME280;10913;51.992;9.228;2022-08-21T09:04:37;100300.00;;;33.02;47.64
21504;BME280;10913;51.992;9.228;2022-08-21T09:07:44;100302.19;;;32.71;48.36
21504;BME280;10913;51.992;9.228;2022-08-21T09:10:20;100300.69;;;32.22;49.47
21504;BME280;10913;51.992;9.228;2022-08-21T09:26:12;100280.78;;;30.56;52.13
21504;BME280;10913;51.992;9.228;2022-08-21T09:28:38;100287.06;;;30.26;52.35
21504;BME280;10913;51.992;9.228;2022-08-21T09:31:08;100290.50;;;29.76;52.67
21504;BME280;10913;51.992;9.228;2022-08-21T09:33:37;100288.78;;;29.55;53.23
21504;BME280;10913;51.992;9.228;2022-08-21T09:36:03;100288.69;;;29.45;53.58
21504;BME280;10913;51.992;9.228;2022-08-21T09:38:35;100295.03;;;29.34;53.51
21504;BME280;10913;51.992;9.228;2022-08-21T09:41:09;100289.44;;;29.36;53.72
21504;BME280;10913;51.992;9.228;2022-08-21T09:43:36;100292.16;;;29.36;53.86
21504;BME280;10913;51.992;9.228;2022-08-21T09:46:12;100287.09;;;29.31;52.79
21504;BME280;10913;51.992;9.228;2022-08-21T09:48:47;100290.47;;;29.24;53.52
21504;BME280;10913;51.992;9.228;2022-08-21T09:51:19;100282.31;;;29.24;53.43
21504;BME280;10913;51.992;9.228;2022-08-21T09:53:54;100289.81;;;29.42;53.87
21504;BME280;10913;51.992;9.228;2022-08-21T09:59:33;100281.38;;;29.45;53.71
21504;BME280;10913;51.992;9.228;2022-08-21T10:02:02;100275.72;;;29.58;53.96
21504;BME280;10913;51.992;9.228;2022-08-21T10:04:32;100273.34;;;29.65;53.57
21504;BME280;10913;51.992;9.228;2022-08-21T10:07:12;100275.69;;;29.69;52.35
21504;BME280;10913;51.992;9.228;2022-08-21T10:09:40;100273.22;;;29.87;52.56
21504;BME280;10913;51.992;9.228;2022-08-21T10:12:21;100266.91;;;29.87;51.05
21504;BME280;10913;51.992;9.228;2022-08-21T10:17:38;100267.03;;;29.43;51.90
21504;BME280;10913;51.992;9.228;2022-08-21T10:20:17;100255.78;;;29.37;50.84
21504;BME280;10913;51.992;9.228;2022-08-21T10:25:53;100258.69;;;29.56;52.80
21504;BME280;10913;51.992;9.228;2022-08-21T10:34:19;100250.81;;;29.83;52.94
21504;BME280;10913;51.992;9.228;2022-08-21T10:36:46;100250.91;;;29.72;52.28
21504;BME280;10913;51.992;9.228;2022-08-21T10:39:33;100249.69;;;29.65;50.69
21504;BME280;10913;51.992;9.228;2022-08-21T10:47:29;100244.75;;;29.38;52.26
21504;BME280;10913;51.992;9.228;2022-08-21T10:50:12;100246.75;;;29.04;52.05
21504;BME280;10913;51.992;9.228;2022-08-21T10:55:20;100253.03;;;29.16;53.56
21504;BME280;10913;51.992;9.228;2022-08-21T10:58:08;100238.13;;;29.31;53.10
21504;BME280;10913;51.992;9.228;2022-08-21T11:05:35;100242.38;;;29.45;50.83
21504;BME280;10913;51.992;9.228;2022-08-21T11:08:12;100244.31;;;29.22;51.11
21504;BME280;10913;51.992;9.228;2022-08-21T11:13:47;100244.47;;;29.21;53.40
21504;BME280;10913;51.992;9.228;2022-08-21T11:16:39;100244.88;;;29.16;52.73
21504;BME280;10913;51.992;9.228;2022-08-21T11:19:36;100238.97;;;29.32;52.66
21504;BME280;10913;51.992;9.228;2022-08-21T11:22:11;100239.94;;;29.42;51.12
21504;BME280;10913;51.992;9.228;2022-08-21T11:24:44;100240.44;;;29.36;52.16
21504;BME280;10913;51.992;9.228;2022-08-21T11:29:54;100234.66;;;29.29;51.90
21504;BME280;10913;51.992;9.228;2022-08-21T11:41:12;100229.56;;;29.36;52.70
21504;BME280;10913;51.992;9.228;2022-08-21T11:43:48;100239.22;;;29.29;51.31
21504;BME280;10913;51.992;9.228;2022-08-21T11:51:41;100233.59;;;28.77;52.35
21504;BME280;10913;51.992;9.228;2022-08-21T11:57:03;100244.25;;;28.69;52.61
21504;BME280;10913;51.992;9.228;2022-08-21T11:59:38;100245.72;;;28.62;52.21
21504;BME280;10913;51.992;9.228;2022-08-21T12:02:13;100237.13;;;28.57;53.02
21504;BME280;10913;51.992;9.228;2022-08-21T12:04:46;100234.97;;;28.72;53.75
21504;BME280;10913;51.992;9.228;2022-08-21T12:07:28;100236.69;;;28.73;52.57
21504;BME280;10913;51.992;9.228;2022-08-21T12:09:56;100231.38;;;28.83;52.39
21504;BME280;10913;51.992;9.228;2022-08-21T12:12:34;100229.75;;;28.91;52.43
21504;BME280;10913;51.992;9.228;2022-08-21T12:18:03;100237.44;;;28.75;51.28
21504;BME280;10913;51.992;9.228;2022-08-21T12:26:00;100226.59;;;28.19;53.61
21504;BME280;10913;51.992;9.228;2022-08-21T12:28:27;100228.47;;;27.85;51.60
21504;BME280;10913;51.992;9.228;2022-08-21T12:30:54;100231.41;;;27.71;52.89
21504;BME280;10913;51.992;9.228;2022-08-21T12:35:53;100225.59;;;27.64;53.50
21504;BME280;10913;51.992;9.228;2022-08-21T12:38:28;100222.16;;;27.73;53.79
21504;BME280;10913;51.992;9.228;2022-08-21T12:41:00;100221.78;;;27.78;55.14
21504;BME280;10913;51.992;9.228;2022-08-21T12:43:42;100219.44;;;27.85;55.62
21504;BME280;10913;51.992;9.228;2022-08-21T12:46:20;100214.28;;;27.93;55.22
21504;BME280;10913;51.992;9.228;2022-08-21T12:54:27;100206.84;;;28.06;53.71
21504;BME280;10913;51.992;9.228;2022-08-21T12:57:02;100208.72;;;28.05;54.57
21504;BME280;10913;51.992;9.228;2022-08-21T12:59:28;100220.69;;;28.03;54.91
21504;BME280;10913;51.992;9.228;2022-08-21T13:01:55;100215.50;;;28.00;55.31
21504;BME280;10913;51.992;9.228;2022-08-21T13:04:40;100215.50;;;28.00;55.42
21504;BME280;10913;51.992;9.228;2022-08-21T13:07:08;100211.31;;;28.07;55.63
21504;BME280;10913;51.992;9.228;2022-08-21T13:09:49;100208.56;;;28.18;55.73
21504;BME280;10913;51.992;9.228;2022-08-21T13:12:17;100211.31;;;28.29;55.00
21504;BME280;10913;51.992;9.228;2022-08-21T13:14:45;100210.84;;;28.35;54.26
21504;BME280;10913;51.992;9.228;2022-08-21T13:17:21;100197.50;;;28.32;53.56
21504;BME280;10913;51.992;9.228;2022-08-21T13:22:22;100207.13;;;28.14;55.56
21504;BME280;10913;51.992;9.228;2022-08-21T13:24:48;100198.97;;;28.14;54.97
21504;BME280;10913;51.992;9.228;2022-08-21T13:27:27;100201.06;;;28.22;55.42
21504;BME280;10913;51.992;9.228;2022-08-21T13:30:13;100200.81;;;28.25;54.94
21504;BME280;10913;51.992;9.228;2022-08-21T13:32:51;100193.53;;;28.25;54.91
21504;BME280;10913;51.992;9.228;2022-08-21T13:35:20;100190.56;;;28.28;55.35
21504;BME280;10913;51.992;9.228;2022-08-21T13:37:48;100191.81;;;28.24;54.30
21504;BME280;10913;51.992;9.228;2022-08-21T13:40:19;100193.66;;;28.12;53.88
21504;BME280;10913;51.992;9.228;2022-08-21T13:42:46;100199.44;;;28.08;54.60
21504;BME280;10913;51.992;9.228;2022-08-21T13:45:18;100193.28;;;28.06;55.05
21504;BME280;10913;51.992;9.228;2022-08-21T13:47:45;100194.28;;;28.16;55.02
21504;BME280;10913;51.992;9.228;2022-08-21T13:50:13;100185.75;;;28.21;54.69
21504;BME280;10913;51.992;9.228;2022-08-21T13:52:49;100191.06;;;28.33;54.22
21504;BME280;10913;51.992;9.228;2022-08-21T13:55:18;100188.19;;;28.46;53.99
21504;BME280;10913;51.992;9.228;2022-08-21T13:57:44;100179.28;;;28.55;53.87
21504;BME280;10913;51.992;9.228;2022-08-21T14:00:20;100186.72;;;28.42;53.65
21504;BME280;10913;51.992;9.228;2022-08-21T14:02:51;100188.81;;;28.50;53.22
21504;BME280;10913;51.992;9.228;2022-08-21T14:05:26;100195.72;;;28.54;53.36
21504;BME280;10913;51.992;9.228;2022-08-21T14:08:07;100191.34;;;28.62;53.03
21504;BME280;10913;51.992;9.228;2022-08-21T14:10:46;100194.56;;;28.67;53.07
21504;BME280;10913;51.992;9.228;2022-08-21T14:13:43;100194.66;;;28.77;52.88
21504;BME280;10913;51.992;9.228;2022-08-21T14:19:09;100178.53;;;28.96;52.43
21504;BME280;10913;51.992;9.228;2022-08-21T14:21:41;100176.00;;;29.04;52.69
21504;BME280;10913;51.992;9.228;2022-08-21T14:24:10;100175.16;;;29.04;53.21
21504;BME280;10913;51.992;9.228;2022-08-21T14:26:43;100179.41;;;28.97;53.34